Time;durP1;ratioP1;P1;durP2;ratioP2;P2;SDS_P1;SDS_P2;PMS_P1;PMS_P2;Temp;Humidity;BMP_temperature;BMP_pressure;BME280_temperature;BME280_humidity;BME280_pressure;Samples;Min_cycle;Max_cycle;Signal;HPM_P1;HPM_P2
2023/03/14 00:01:53;;;;;;;6.13;2.47;;;11.40;99.90;;;;;;4996487;28;20026;-76
2023/03/14 00:04:18;;;;;;;11.65;3.03;;;11.30;99.90;;;;;;4996779;28;20034;-75
2023/03/14 00:06:46;;;;;;;7.65;3.05;;;11.30;99.90;;;;;;4998268;28;20030;-76
2023/03/14 00:09:13;;;;;;;6.45;2.78;;;11.20;99.90;;;;;;4996881;28;20031;-75
2023/03/14 00:11:38;;;;;;;4.63;2.70;;;11.20;99.90;;;;;;4996074;28;20038;-75
2023/03/14 00:14:04;;;;;;;6.88;3.58;;;11.20;99.90;;;;;;4998541;28;20485;-75
2023/03/14 00:16:30;;;;;;;13.60;3.38;;;11.20;99.90;;;;;;5000977;28;20489;-75
2023/03/14 00:18:57;;;;;;;8.85;3.50;;;11.20;99.90;;;;;;5000059;28;20057;-75
2023/03/14 00:21:23;;;;;;;8.02;2.95;;;11.20;99.90;;;;;;5001278;28;20601;-76
2023/03/14 00:23:49;;;;;;;6.53;2.97;;;11.10;99.90;;;;;;4998936;28;20516;-76
2023/03/14 00:26:17;;;;;;;11.27;4.00;;;11.10;99.90;;;;;;4996606;28;20524;-76
2023/03/14 00:28:44;;;;;;;9.93;3.22;;;11.10;99.90;;;;;;4981845;28;20038;-76
2023/03/14 00:31:12;;;;;;;14.73;3.90;;;11.20;99.90;;;;;;4985306;28;20040;-76
2023/03/14 00:33:37;;;;;;;8.85;3.35;;;11.20;99.90;;;;;;5002340;28;20057;-76
2023/03/14 00:36:08;;;;;;;11.00;2.85;;;11.30;99.90;;;;;;4988086;28;20033;-76
2023/03/14 00:38:35;;;;;;;9.80;2.83;;;11.30;99.90;;;;;;4983954;28;20496;-76
2023/03/14 00:41:05;;;;;;;11.07;2.92;;;11.30;99.90;;;;;;4983146;28;20033;-75
2023/03/14 00:43:31;;;;;;;6.20;2.85;;;11.20;99.90;;;;;;4983390;28;20058;-76
2023/03/14 00:45:57;;;;;;;9.45;2.75;;;11.30;99.90;;;;;;5000274;28;20131;-77
2023/03/14 00:48:23;;;;;;;11.75;3.00;;;11.30;99.90;;;;;;4999249;28;20037;-77
2023/03/14 00:50:49;;;;;;;10.68;3.20;;;11.30;99.90;;;;;;5001330;28;20476;-77
2023/03/14 00:53:15;;;;;;;7.05;2.90;;;11.30;99.90;;;;;;4999894;28;20038;-77
2023/03/14 00:55:43;;;;;;;6.47;2.88;;;11.30;99.90;;;;;;4998837;28;20081;-76
2023/03/14 00:58:13;;;;;;;10.95;4.05;;;11.30;99.90;;;;;;5015720;28;20028;-76
2023/03/14 01:00:39;;;;;;;8.38;2.45;;;11.30;99.90;;;;;;5000110;28;20022;-75
2023/03/14 01:03:06;;;;;;;9.38;2.90;;;11.30;99.90;;;;;;4999059;28;20170;-76
2023/03/14 01:05:31;;;;;;;11.23;3.53;;;11.30;99.90;;;;;;4998153;28;20034;-78
2023/03/14 01:07:58;;;;;;;9.55;2.78;;;11.40;99.90;;;;;;5001752;28;20088;-77
2023/03/14 01:10:25;;;;;;;10.75;3.58;;;11.30;99.90;;;;;;4984701;28;20038;-77
2023/03/14 01:12:50;;;;;;;11.00;3.00;;;11.40;99.90;;;;;;4987952;28;20030;-77
2023/03/14 01:15:16;;;;;;;15.68;3.40;;;11.40;99.90;;;;;;5006683;28;20113;-77
2023/03/14 01:17:43;;;;;;;5.05;2.50;;;11.40;99.90;;;;;;4998583;28;20030;-79
2023/03/14 01:20:11;;;;;;;12.27;3.35;;;11.40;99.90;;;;;;5000586;28;20348;-75
2023/03/14 01:22:39;;;;;;;9.57;2.92;;;11.40;99.90;;;;;;4982525;28;20517;-75
2023/03/14 01:25:11;;;;;;;11.63;3.15;;;11.40;99.90;;;;;;5000146;28;20034;-76
2023/03/14 01:27:37;;;;;;;10.60;3.30;;;11.40;99.90;;;;;;5000537;28;20030;-76
2023/03/14 01:30:04;;;;;;;7.00;3.28;;;11.40;99.90;;;;;;4999356;28;20429;-75
2023/03/14 01:32:30;;;;;;;9.05;2.83;;;11.50;99.90;;;;;;4999378;28;20038;-76
2023/03/14 01:34:56;;;;;;;8.27;3.10;;;11.50;99.90;;;;;;5000383;28;20034;-75
2023/03/14 01:37:22;;;;;;;11.90;2.85;;;11.40;99.90;;;;;;5019095;28;20344;-76
2023/03/14 01:39:48;;;;;;;6.90;2.75;;;11.50;99.90;;;;;;5007570;28;20034;-75
2023/03/14 01:42:14;;;;;;;8.40;3.30;;;11.50;99.90;;;;;;5008081;28;20030;-76
2023/03/14 01:44:58;;;;;;;15.82;3.33;;;11.40;99.90;;;;;;5001831;28;20056;-75
2023/03/14 01:47:24;;;;;;;10.23;3.20;;;11.40;99.90;;;;;;5000000;28;20029;-75
2023/03/14 01:50:03;;;;;;;9.55;3.17;;;11.40;99.90;;;;;;4995915;28;20504;-75
2023/03/14 01:52:28;;;;;;;7.80;3.38;;;11.30;99.90;;;;;;4990930;28;20090;-75
2023/03/14 01:55:11;;;;;;;7.47;3.00;;;11.30;99.90;;;;;;5001791;28;20160;-76
2023/03/14 01:57:41;;;;;;;9.23;3.15;;;11.30;99.90;;;;;;5000100;28;20053;-78
2023/03/14 02:00:14;;;;;;;12.55;2.83;;;11.20;99.90;;;;;;5016098;28;20122;-75
2023/03/14 02:02:43;;;;;;;9.23;3.33;;;11.20;99.90;;;;;;5000671;28;20031;-75
2023/03/14 02:05:10;;;;;;;8.57;2.90;;;11.20;99.90;;;;;;4999683;28;20033;-75
2023/03/14 02:07:53;;;;;;;8.07;3.25;;;11.20;99.90;;;;;;4996629;28;20034;-76
2023/03/14 02:10:22;;;;;;;6.43;2.95;;;11.20;99.90;;;;;;5000997;28;20085;-76
2023/03/14 02:12:50;;;;;;;7.70;2.97;;;11.20;99.90;;;;;;4998686;28;20112;-75
2023/03/14 02:15:18;;;;;;;7.82;2.88;;;11.10;99.90;;;;;;5001149;28;20101;-76
2023/03/14 02:17:45;;;;;;;7.63;3.25;;;11.10;99.90;;;;;;5001883;28;20022;-76
2023/03/14 02:20:26;;;;;;;9.27;3.28;;;11.00;99.90;;;;;;4999486;28;20108;-75
2023/03/14 02:22:52;;;;;;;10.45;3.42;;;11.00;99.90;;;;;;4999928;28;20107;-76
2023/03/14 02:25:33;;;;;;;7.07;2.88;;;10.90;99.90;;;;;;5000734;28;20453;-75
2023/03/14 02:27:59;;;;;;;10.07;3.30;;;10.90;99.90;;;;;;4999861;28;20030;-76
2023/03/14 02:30:28;;;;;;;10.98;3.25;;;10.90;99.90;;;;;;5000422;28;20041;-75
2023/03/14 02:33:15;;;;;;;10.65;2.90;;;10.90;99.90;;;;;;4998516;28;20030;-75
2023/03/14 02:35:56;;;;;;;11.43;3.60;;;10.90;99.90;;;;;;4999771;28;20087;-75
2023/03/14 02:38:31;;;;;;;6.20;3.08;;;10.90;99.90;;;;;;5000350;28;20494;-76
2023/03/14 02:40:57;;;;;;;9.98;3.53;;;10.90;99.90;;;;;;4995719;28;20033;-75
2023/03/14 02:43:23;;;;;;;6.25;2.65;;;10.80;99.90;;;;;;5000507;28;20402;-76
2023/03/14 02:45:50;;;;;;;12.20;3.08;;;10.90;99.90;;;;;;5000241;28;20026;-77
2023/03/14 02:48:19;;;;;;;10.48;3.00;;;10.90;99.90;;;;;;5000224;28;20458;-76
2023/03/14 02:50:48;;;;;;;7.20;3.50;;;10.90;99.90;;;;;;4996477;28;20037;-76
2023/03/14 02:53:20;;;;;;;9.25;3.30;;;10.90;99.90;;;;;;4997286;28;20288;-76
2023/03/14 02:55:50;;;;;;;13.30;4.15;;;11.00;99.90;;;;;;4994546;28;20951;-77
2023/03/14 02:58:16;;;;;;;10.75;3.50;;;11.00;99.90;;;;;;4998375;28;20058;-77
2023/03/14 03:00:42;;;;;;;8.80;3.78;;;11.00;99.90;;;;;;5001270;28;20116;-76
2023/03/14 03:03:08;;;;;;;11.27;3.47;;;11.00;99.90;;;;;;4997916;28;21230;-76
2023/03/14 03:05:33;;;;;;;11.05;4.00;;;11.00;99.90;;;;;;4998956;28;20034;-76
2023/03/14 03:08:00;;;;;;;11.25;3.40;;;11.10;99.90;;;;;;4997287;28;20030;-76
2023/03/14 03:10:27;;;;;;;11.65;3.58;;;11.10;99.90;;;;;;4998877;28;20037;-77
2023/03/14 03:12:52;;;;;;;10.52;4.00;;;11.10;99.90;;;;;;4996904;28;20027;-76
2023/03/14 03:15:18;;;;;;;9.55;3.53;;;11.20;99.90;;;;;;4998873;28;20501;-76
2023/03/14 03:17:44;;;;;;;10.82;3.50;;;11.20;99.90;;;;;;5002709;28;20693;-76
2023/03/14 03:20:10;;;;;;;10.55;3.90;;;11.20;99.90;;;;;;4983815;28;20026;-76
2023/03/14 03:22:36;;;;;;;11.55;3.63;;;11.20;99.90;;;;;;5014555;28;20026;-76
2023/03/14 03:25:04;;;;;;;9.23;3.42;;;11.20;99.90;;;;;;4997094;28;20081;-76
2023/03/14 03:27:31;;;;;;;9.90;3.45;;;11.20;99.90;;;;;;5014280;28;20034;-76
2023/03/14 03:29:57;;;;;;;9.88;3.78;;;11.20;99.90;;;;;;4998808;28;20029;-76
2023/03/14 03:32:23;;;;;;;6.53;3.50;;;11.30;99.90;;;;;;4997611;28;20032;-76
2023/03/14 03:34:49;;;;;;;12.18;3.70;;;11.30;99.90;;;;;;4998402;28;20030;-78
2023/03/14 03:37:15;;;;;;;7.13;3.22;;;11.30;99.90;;;;;;5002601;28;20520;-77
2023/03/14 03:39:40;;;;;;;8.48;3.00;;;11.30;99.90;;;;;;4997632;28;20061;-76
2023/03/14 03:42:06;;;;;;;6.43;3.05;;;11.30;99.90;;;;;;4999585;28;20061;-77
2023/03/14 03:44:32;;;;;;;9.88;3.40;;;11.30;99.90;;;;;;5014202;28;20030;-77
2023/03/14 03:46:58;;;;;;;7.15;3.55;;;11.30;99.90;;;;;;4997943;28;20161;-76
2023/03/14 03:49:23;;;;;;;8.55;3.17;;;11.30;99.90;;;;;;4999001;28;20022;-76
2023/03/14 03:51:49;;;;;;;9.05;3.38;;;11.30;99.90;;;;;;4998435;28;20030;-76
2023/03/14 03:54:15;;;;;;;7.53;3.47;;;11.30;99.90;;;;;;4982853;28;20025;-76
2023/03/14 03:56:41;;;;;;;8.70;3.38;;;11.30;99.90;;;;;;4998081;28;20035;-76
2023/03/14 03:59:06;;;;;;;8.75;3.22;;;11.20;99.90;;;;;;4999691;28;20025;-76
2023/03/14 04:01:32;;;;;;;9.70;4.22;;;11.20;99.90;;;;;;5000425;28;20045;-77
2023/03/14 04:03:58;;;;;;;13.38;4.07;;;11.20;99.90;;;;;;5000320;28;20030;-76
2023/03/14 04:06:24;;;;;;;8.55;3.00;;;11.20;99.90;;;;;;5002603;28;20022;-76
2023/03/14 04:08:49;;;;;;;7.80;2.88;;;11.20;99.90;;;;;;5002277;28;21326;-76
2023/03/14 04:11:15;;;;;;;9.10;2.97;;;11.20;99.90;;;;;;5002350;28;20777;-76
2023/03/14 04:13:41;;;;;;;11.25;3.40;;;11.20;99.90;;;;;;5004389;28;20089;-76
2023/03/14 04:16:16;;;;;;;8.90;3.70;;;11.20;99.90;;;;;;5001050;28;20489;-76
2023/03/14 04:18:42;;;;;;;7.78;3.35;;;11.10;99.90;;;;;;4998764;28;20027;-76
2023/03/14 04:21:07;;;;;;;11.73;3.10;;;11.10;99.90;;;;;;4983297;28;20022;-76
2023/03/14 04:23:33;;;;;;;9.93;3.28;;;11.10;99.90;;;;;;4998356;28;20627;-76
2023/03/14 04:25:59;;;;;;;8.68;3.38;;;11.20;99.90;;;;;;5000427;28;20029;-77
2023/03/14 04:28:25;;;;;;;7.38;3.53;;;11.10;99.90;;;;;;5002209;28;20022;-76
2023/03/14 04:30:50;;;;;;;8.52;3.17;;;11.10;99.90;;;;;;5001412;28;20030;-76
2023/03/14 04:33:17;;;;;;;13.43;3.88;;;11.10;99.90;;;;;;5002899;28;20544;-76
2023/03/14 04:35:44;;;;;;;8.52;3.22;;;11.10;99.90;;;;;;5004028;28;20041;-77
2023/03/14 04:38:10;;;;;;;10.45;4.00;;;11.00;99.90;;;;;;5002473;28;20037;-77
2023/03/14 04:40:40;;;;;;;9.80;4.30;;;11.10;99.90;;;;;;5000771;28;20030;-78
2023/03/14 04:43:10;;;;;;;9.88;4.40;;;11.10;99.90;;;;;;5006303;28;20022;-76
2023/03/14 04:45:36;;;;;;;7.55;3.63;;;11.10;99.90;;;;;;5006658;28;20053;-76
2023/03/14 04:48:02;;;;;;;8.07;3.58;;;11.20;99.90;;;;;;5003746;28;20061;-76
2023/03/14 04:50:28;;;;;;;9.95;4.30;;;11.20;99.90;;;;;;5001860;28;20034;-77
2023/03/14 04:52:53;;;;;;;11.98;4.45;;;11.20;99.90;;;;;;5000675;28;20032;-77
2023/03/14 04:55:19;;;;;;;11.50;4.30;;;11.20;99.90;;;;;;5003184;28;20037;-76
2023/03/14 04:57:45;;;;;;;10.40;4.38;;;11.20;99.90;;;;;;5002236;28;20034;-76
2023/03/14 05:00:11;;;;;;;10.32;3.65;;;11.20;99.90;;;;;;5001817;28;20038;-76
2023/03/14 05:02:37;;;;;;;10.60;3.40;;;11.20;99.90;;;;;;4984718;28;20030;-77
2023/03/14 05:05:03;;;;;;;6.45;2.83;;;11.20;99.90;;;;;;5002800;28;20034;-77
2023/03/14 05:07:29;;;;;;;7.63;2.97;;;11.20;99.90;;;;;;5014796;28;20088;-76
2023/03/14 05:09:54;;;;;;;7.97;2.55;;;11.20;99.90;;;;;;5001947;28;20029;-77
2023/03/14 05:12:20;;;;;;;6.53;2.63;;;11.20;99.90;;;;;;5001414;28;20050;-77
2023/03/14 05:14:46;;;;;;;6.28;2.05;;;11.10;99.90;;;;;;5000777;28;20076;-77
2023/03/14 05:17:14;;;;;;;5.15;2.08;;;11.10;99.90;;;;;;5002898;28;20026;-76
2023/03/14 05:19:40;;;;;;;7.13;3.00;;;10.80;99.90;;;;;;5001423;28;20025;-77
2023/03/14 05:22:06;;;;;;;4.82;2.80;;;10.60;99.90;;;;;;5001724;28;20073;-77
2023/03/14 05:24:32;;;;;;;7.97;3.08;;;10.50;99.90;;;;;;5003066;28;20117;-77
2023/03/14 05:26:58;;;;;;;6.03;2.88;;;10.30;99.90;;;;;;5004657;28;20082;-76
2023/03/14 05:29:23;;;;;;;5.63;2.40;;;10.20;99.90;;;;;;4984742;28;20281;-77
2023/03/14 05:31:49;;;;;;;6.72;2.88;;;10.20;99.90;;;;;;5005422;28;20018;-76
2023/03/14 05:34:15;;;;;;;7.38;2.40;;;10.20;99.90;;;;;;5013077;28;20026;-76
2023/03/14 05:36:42;;;;;;;6.68;2.63;;;10.10;99.90;;;;;;4996762;28;20034;-77
2023/03/14 05:39:07;;;;;;;5.22;2.63;;;10.20;99.90;;;;;;5008389;28;20030;-76
2023/03/14 05:41:33;;;;;;;5.57;3.03;;;10.10;99.90;;;;;;5021234;28;20032;-75
2023/03/14 05:43:59;;;;;;;7.95;2.88;;;10.10;99.90;;;;;;5002581;28;20029;-76
2023/03/14 05:46:24;;;;;;;8.52;3.40;;;10.10;99.90;;;;;;5005121;28;20033;-77
2023/03/14 05:48:50;;;;;;;4.05;2.75;;;10.10;99.90;;;;;;5005264;28;20038;-77
2023/03/14 05:51:16;;;;;;;7.00;3.53;;;10.10;99.90;;;;;;5003981;28;20117;-76
2023/03/14 05:53:42;;;;;;;8.10;3.25;;;10.10;99.90;;;;;;5002140;28;20038;-76
2023/03/14 05:56:08;;;;;;;8.88;3.90;;;10.10;99.90;;;;;;5005712;28;20038;-77
2023/03/14 05:58:33;;;;;;;11.23;4.45;;;10.10;99.90;;;;;;4988133;28;20037;-76
2023/03/14 06:01:05;;;;;;;10.32;4.43;;;10.10;99.90;;;;;;5002975;28;20072;-77
2023/03/14 06:03:32;;;;;;;9.90;4.40;;;10.20;99.90;;;;;;5007809;28;20030;-77
2023/03/14 06:05:58;;;;;;;10.90;5.25;;;10.20;99.90;;;;;;5006565;28;20033;-76
2023/03/14 06:08:24;;;;;;;15.77;6.22;;;10.20;99.90;;;;;;5005182;28;20026;-76
2023/03/14 06:10:51;;;;;;;10.07;5.25;;;10.20;99.90;;;;;;5003044;28;20033;-77
2023/03/14 06:13:16;;;;;;;9.43;4.93;;;10.20;99.90;;;;;;5005479;28;20026;-76
2023/03/14 06:15:42;;;;;;;11.27;4.93;;;10.20;99.90;;;;;;4999147;28;20030;-76
2023/03/14 06:18:08;;;;;;;8.88;4.95;;;10.30;99.90;;;;;;5004548;28;20022;-77
2023/03/14 06:20:41;;;;;;;10.02;4.60;;;10.30;99.90;;;;;;5005455;28;20033;-76
2023/03/14 06:23:08;;;;;;;11.90;5.25;;;10.30;99.90;;;;;;5005812;28;20048;-77
2023/03/14 06:25:35;;;;;;;10.57;5.05;;;10.30;99.90;;;;;;5003474;28;20037;-76
2023/03/14 06:28:00;;;;;;;12.15;4.80;;;10.30;99.90;;;;;;5008508;28;20033;-77
2023/03/14 06:30:26;;;;;;;10.88;4.70;;;10.30;99.90;;;;;;5006989;28;20086;-77
2023/03/14 06:32:53;;;;;;;12.40;4.70;;;10.30;99.90;;;;;;4987453;28;20029;-76
2023/03/14 06:35:19;;;;;;;8.23;4.20;;;10.20;99.90;;;;;;4986617;28;20540;-77
2023/03/14 06:37:45;;;;;;;11.43;4.38;;;10.20;99.90;;;;;;5002350;28;20037;-77
2023/03/14 06:40:16;;;;;;;14.75;5.13;;;10.20;99.90;;;;;;5005130;28;20025;-76
2023/03/14 06:42:42;;;;;;;6.53;3.65;;;10.30;99.90;;;;;;5004764;28;20017;-77
2023/03/14 06:45:09;;;;;;;7.35;3.97;;;10.30;99.90;;;;;;5005430;28;20270;-76
2023/03/14 06:47:35;;;;;;;9.27;4.00;;;10.30;99.90;;;;;;5005105;28;20469;-77
2023/03/14 06:50:00;;;;;;;10.70;4.55;;;10.30;99.90;;;;;;4985705;28;20117;-77
2023/03/14 06:52:26;;;;;;;9.00;3.40;;;10.60;99.90;;;;;;5000887;28;20109;-78
2023/03/14 06:54:52;;;;;;;6.75;3.28;;;10.50;99.90;;;;;;5001195;28;20113;-77
2023/03/14 06:57:18;;;;;;;11.20;3.92;;;10.40;99.90;;;;;;4988430;28;20036;-76
2023/03/14 06:59:43;;;;;;;7.30;3.35;;;10.40;99.90;;;;;;5001640;28;20038;-73
2023/03/14 07:02:12;;;;;;;10.25;3.90;;;10.40;99.90;;;;;;5006647;28;20034;-73
2023/03/14 07:04:39;;;;;;;8.15;3.33;;;10.40;99.90;;;;;;5005134;28;20026;-76
2023/03/14 07:07:05;;;;;;;10.55;3.38;;;10.40;99.90;;;;;;5031895;28;20030;-74
2023/03/14 07:09:31;;;;;;;13.63;3.50;;;10.40;99.90;;;;;;4999891;28;20413;-75
2023/03/14 07:11:57;;;;;;;7.60;3.00;;;10.40;99.90;;;;;;4995743;28;20109;-73
2023/03/14 07:14:23;;;;;;;10.15;2.45;;;10.40;99.90;;;;;;5000626;28;20109;-74
2023/03/14 07:16:49;;;;;;;8.63;2.83;;;10.40;99.90;;;;;;5001839;28;20068;-75
2023/03/14 07:19:15;;;;;;;10.52;2.45;;;10.30;99.90;;;;;;5000238;28;20108;-75
2023/03/14 07:21:41;;;;;;;9.00;2.40;;;10.40;99.90;;;;;;5000160;28;20373;-74
2023/03/14 07:24:06;;;;;;;8.23;2.65;;;10.40;99.90;;;;;;4998062;28;20056;-75
2023/03/14 07:26:32;;;;;;;6.15;1.83;;;10.40;99.90;;;;;;4994944;28;20888;-74
2023/03/14 07:28:58;;;;;;;8.70;2.30;;;10.40;99.90;;;;;;4997542;28;20031;-77
2023/03/14 07:31:24;;;;;;;8.38;2.33;;;10.40;99.90;;;;;;4997708;28;20040;-74
2023/03/14 07:33:49;;;;;;;9.13;2.33;;;10.40;99.90;;;;;;4998322;28;20056;-75
2023/03/14 07:36:15;;;;;;;7.88;2.55;;;10.40;99.90;;;;;;4999076;28;20041;-74
2023/03/14 07:38:41;;;;;;;17.25;3.17;;;10.40;99.90;;;;;;5001304;28;20556;-75
2023/03/14 07:41:07;;;;;;;12.25;3.53;;;10.50;99.90;;;;;;5003095;28;20117;-75
2023/03/14 07:43:34;;;;;;;11.07;3.60;;;10.40;99.90;;;;;;5005046;28;20502;-75
2023/03/14 07:45:59;;;;;;;11.98;3.33;;;10.40;99.90;;;;;;5002624;28;20092;-74
2023/03/14 07:48:26;;;;;;;9.75;3.47;;;10.50;99.90;;;;;;5003917;28;20113;-74
2023/03/14 07:50:53;;;;;;;8.80;2.45;;;10.40;99.90;;;;;;5004048;28;20030;-75
2023/03/14 07:53:21;;;;;;;8.60;2.25;;;10.40;99.90;;;;;;5003623;28;20036;-74
2023/03/14 07:55:47;;;;;;;12.30;2.17;;;10.40;99.90;;;;;;5003556;28;20073;-74
2023/03/14 07:58:16;;;;;;;8.98;2.65;;;10.40;99.90;;;;;;5004598;28;20021;-75
2023/03/14 08:00:43;;;;;;;11.18;2.10;;;10.40;99.90;;;;;;5001673;28;20029;-76
2023/03/14 08:03:09;;;;;;;9.88;1.60;;;10.40;99.90;;;;;;5014542;28;20592;-74
2023/03/14 08:05:36;;;;;;;5.97;1.90;;;10.40;99.90;;;;;;4999829;28;20148;-73
2023/03/14 08:08:04;;;;;;;4.90;1.50;;;10.40;99.90;;;;;;5003816;28;20580;-74
2023/03/14 08:10:30;;;;;;;4.50;1.50;;;10.50;99.90;;;;;;5001823;28;20083;-74
2023/03/14 08:12:57;;;;;;;6.43;1.75;;;10.50;99.90;;;;;;5003029;28;20037;-73
2023/03/14 08:15:24;;;;;;;4.32;1.40;;;10.60;99.90;;;;;;5034995;28;20030;-75
2023/03/14 08:17:51;;;;;;;4.78;1.20;;;10.70;99.90;;;;;;5003760;28;20027;-74
2023/03/14 08:20:25;;;;;;;8.02;1.60;;;10.80;99.90;;;;;;5032273;28;20112;-74
2023/03/14 08:22:50;;;;;;;5.78;1.50;;;10.80;99.90;;;;;;5004181;28;20026;-74
2023/03/14 08:25:16;;;;;;;6.10;1.58;;;10.80;99.90;;;;;;5004822;28;20531;-73
2023/03/14 08:27:43;;;;;;;4.50;1.40;;;10.80;99.90;;;;;;5004728;28;20038;-75
2023/03/14 08:30:12;;;;;;;5.82;1.67;;;10.80;99.90;;;;;;5004435;28;20034;-75
2023/03/14 08:32:38;;;;;;;6.20;1.90;;;10.80;99.90;;;;;;5000198;28;20033;-73
2023/03/14 08:35:05;;;;;;;7.32;1.55;;;10.80;99.90;;;;;;5003041;28;20417;-75
2023/03/14 08:37:33;;;;;;;5.88;1.77;;;10.80;99.90;;;;;;5000364;28;20778;-73
2023/03/14 08:39:59;;;;;;;6.18;2.03;;;10.80;99.90;;;;;;4986954;28;20445;-74
2023/03/14 08:42:25;;;;;;;5.55;1.85;;;10.80;99.90;;;;;;5001843;28;20110;-73
2023/03/14 08:44:52;;;;;;;7.93;2.97;;;10.80;99.90;;;;;;5004330;28;20030;-75
2023/03/14 08:47:18;;;;;;;6.18;2.50;;;10.90;99.90;;;;;;5003182;28;20449;-72
2023/03/14 08:49:44;;;;;;;6.30;2.60;;;10.90;99.90;;;;;;5000733;28;20109;-73
2023/03/14 08:52:09;;;;;;;8.25;2.42;;;10.90;99.90;;;;;;5004486;28;20025;-72
2023/03/14 08:54:35;;;;;;;14.35;3.28;;;10.80;99.90;;;;;;5003699;28;20042;-75
2023/03/14 08:57:01;;;;;;;15.57;3.17;;;10.80;99.90;;;;;;5003031;28;20021;-74
2023/03/14 08:59:26;;;;;;;7.47;3.72;;;10.80;99.90;;;;;;4987850;28;20097;-73
2023/03/14 09:01:53;;;;;;;11.05;3.97;;;10.80;99.90;;;;;;5001454;28;20029;-73
2023/03/14 09:04:19;;;;;;;10.85;3.50;;;10.80;99.90;;;;;;5001934;28;20036;-74
2023/03/14 09:06:45;;;;;;;10.70;3.30;;;10.80;99.90;;;;;;5003942;28;20088;-74
2023/03/14 09:09:13;;;;;;;9.15;3.97;;;10.80;99.90;;;;;;5004553;28;20033;-73
2023/03/14 09:11:39;;;;;;;7.53;2.92;;;10.80;99.90;;;;;;5004234;28;20102;-73
2023/03/14 09:14:05;;;;;;;9.90;3.60;;;10.70;99.90;;;;;;5008806;28;20039;-74
2023/03/14 09:16:30;;;;;;;9.98;3.42;;;10.70;99.90;;;;;;5005450;28;20038;-73
2023/03/14 09:18:59;;;;;;;12.70;3.38;;;10.70;99.90;;;;;;5017245;28;20060;-74
2023/03/14 09:21:27;;;;;;;7.30;3.58;;;10.70;99.90;;;;;;5002310;28;20026;-73
2023/03/14 09:23:55;;;;;;;8.73;3.65;;;10.70;99.90;;;;;;4999737;28;20029;-75
2023/03/14 09:26:21;;;;;;;10.20;3.30;;;10.70;99.90;;;;;;4998794;28;20381;-74
2023/03/14 09:28:46;;;;;;;11.27;4.45;;;10.70;99.90;;;;;;5003069;28;20034;-74
2023/03/14 09:31:13;;;;;;;10.30;3.70;;;10.70;99.90;;;;;;5002903;28;20056;-73
2023/03/14 09:33:39;;;;;;;9.82;3.50;;;10.70;99.90;;;;;;5001705;28;20041;-75
2023/03/14 09:36:05;;;;;;;9.43;3.75;;;10.70;99.90;;;;;;5000985;28;20042;-72
2023/03/14 09:38:32;;;;;;;9.45;4.00;;;10.80;99.90;;;;;;4998633;28;20088;-74
2023/03/14 09:41:01;;;;;;;5.70;2.97;;;10.80;99.90;;;;;;5000546;28;20030;-74
2023/03/14 09:43:31;;;;;;;11.35;4.15;;;10.80;99.90;;;;;;5003035;28;20537;-73
2023/03/14 09:46:00;;;;;;;15.43;6.73;;;10.90;99.90;;;;;;5000248;28;20026;-73
2023/03/14 09:48:32;;;;;;;10.90;4.55;;;10.90;99.90;;;;;;5001626;28;20026;-74
2023/03/14 09:51:03;;;;;;;10.23;4.18;;;10.80;99.90;;;;;;5000500;28;20061;-73
2023/03/14 09:53:40;;;;;;;8.45;2.83;;;10.70;99.90;;;;;;5002108;28;20042;-72
2023/03/14 09:56:26;;;;;;;5.13;1.30;;;10.40;99.90;;;;;;4990099;28;20041;-76
2023/03/14 09:58:56;;;;;;;2.45;0.70;;;9.90;99.90;;;;;;5010198;28;20038;-73
2023/03/14 10:01:28;;;;;;;2.35;0.80;;;9.60;99.90;;;;;;5006922;28;20030;-76
2023/03/14 10:03:56;;;;;;;1.60;0.95;;;9.30;99.90;;;;;;5001453;28;20028;-74
2023/03/14 10:06:26;;;;;;;4.20;1.15;;;9.10;99.90;;;;;;5002526;28;20034;-73
2023/03/14 10:08:54;;;;;;;3.37;1.27;;;8.90;99.90;;;;;;5000248;28;20050;-73
2023/03/14 10:11:20;;;;;;;3.20;1.10;;;8.80;99.90;;;;;;4998699;28;20037;-73
2023/03/14 10:13:48;;;;;;;4.78;1.20;;;8.90;99.90;;;;;;5002289;28;20100;-73
2023/03/14 10:16:27;;;;;;;2.45;0.88;;;8.90;99.90;;;;;;5001131;28;20041;-73
2023/03/14 10:18:53;;;;;;;4.22;1.55;;;8.80;99.90;;;;;;5002551;28;20108;-73
2023/03/14 10:21:30;;;;;;;2.42;0.85;;;8.70;99.90;;;;;;5000451;28;20101;-75
2023/03/14 10:24:19;;;;;;;4.68;1.38;;;8.60;99.90;;;;;;5006407;28;20034;-75
2023/03/14 10:26:50;;;;;;;2.28;0.90;;;8.50;99.90;;;;;;5000691;28;20121;-73
2023/03/14 10:29:16;;;;;;;3.33;0.70;;;8.40;99.90;;;;;;5001187;28;20056;-74
2023/03/14 10:31:52;;;;;;;2.58;0.93;;;8.00;99.90;;;;;;5003239;28;20045;-74
2023/03/14 10:34:26;;;;;;;1.38;0.40;;;7.90;99.90;;;;;;4999632;28;20041;-75
2023/03/14 10:37:21;;;;;;;2.42;0.60;;;7.80;99.90;;;;;;4998965;28;20092;-73
2023/03/14 10:39:52;;;;;;;0.45;0.17;;;7.70;99.90;;;;;;4992448;28;20394;-73
2023/03/14 10:42:33;;;;;;;0.80;0.20;;;7.60;99.90;;;;;;4996631;28;20109;-75
2023/03/14 10:45:07;;;;;;;1.83;0.40;;;7.40;99.90;;;;;;5000082;28;20503;-74
2023/03/14 10:47:34;;;;;;;0.93;0.30;;;7.30;99.90;;;;;;5000469;28;20038;-73
2023/03/14 10:50:29;;;;;;;1.83;0.63;;;7.30;99.90;;;;;;4999858;28;20105;-72
2023/03/14 10:52:56;;;;;;;1.08;0.40;;;7.20;99.90;;;;;;5001868;28;20112;-72
2023/03/14 10:55:25;;;;;;;2.42;0.60;;;7.20;99.90;;;;;;5001019;28;20062;-72
2023/03/14 10:57:51;;;;;;;1.08;0.38;;;7.10;99.90;;;;;;4999482;28;20026;-73
2023/03/14 11:00:20;;;;;;;0.75;0.30;;;7.10;99.90;;;;;;4997889;28;20620;-73
2023/03/14 11:02:46;;;;;;;0.43;0.20;;;6.90;99.90;;;;;;4996752;28;20076;-74
2023/03/14 11:05:34;;;;;;;0.80;0.30;;;6.90;99.90;;;;;;5007482;28;20026;-73
2023/03/14 11:08:26;;;;;;;1.50;0.47;;;6.70;99.90;;;;;;4998455;28;20033;-75
2023/03/14 11:11:02;;;;;;;1.27;0.40;;;6.70;99.90;;;;;;4998323;28;20410;-74
2023/03/14 11:13:57;;;;;;;2.13;0.50;;;6.60;99.90;;;;;;4999615;28;20038;-75
2023/03/14 11:17:10;;;;;;;1.35;0.30;;;6.80;99.90;;;;;;4998626;28;21455;-75
2023/03/14 11:20:34;;;;;;;2.17;0.30;;;6.80;99.90;;;;;;4942932;28;20454;-74
2023/03/14 11:23:27;;;;;;;4.10;0.70;;;6.60;99.90;;;;;;4891396;28;20075;-71
2023/03/14 11:26:25;;;;;;;2.20;0.50;;;6.40;99.90;;;;;;4943198;28;20090;-73
2023/03/14 11:28:58;;;;;;;3.03;0.47;;;6.20;99.90;;;;;;4961603;28;20494;-73
2023/03/14 11:31:29;;;;;;;6.97;1.05;;;6.20;99.90;;;;;;4945431;28;20506;-72
2023/03/14 11:34:16;;;;;;;2.53;0.60;;;6.20;99.90;;;;;;4959399;28;20039;-75
2023/03/14 11:36:49;;;;;;;4.43;0.70;;;6.30;99.90;;;;;;4959024;28;20054;-75
2023/03/14 11:39:18;;;;;;;4.50;0.70;;;6.40;99.90;;;;;;4965556;28;20105;-75
2023/03/14 11:41:58;;;;;;;3.53;1.10;;;6.30;99.90;;;;;;4949335;28;20038;-74
2023/03/14 11:44:29;;;;;;;2.60;0.60;;;6.40;99.90;;;;;;4960241;28;20610;-75
2023/03/14 11:47:25;;;;;;;5.45;1.00;;;6.60;99.90;;;;;;4959047;28;20041;-73
2023/03/14 11:50:21;;;;;;;5.65;1.17;;;6.60;99.90;;;;;;4954540;28;20038;-73
2023/03/14 11:53:01;;;;;;;7.07;1.05;;;6.70;99.90;;;;;;4996099;28;20187;-75
2023/03/14 11:55:36;;;;;;;4.95;1.02;;;6.90;99.90;;;;;;5015563;28;20026;-74
2023/03/14 11:58:18;;;;;;;3.80;0.95;;;6.70;99.90;;;;;;5004349;28;20058;-75
2023/03/14 12:00:46;;;;;;;3.67;0.80;;;6.70;99.90;;;;;;4985498;28;20545;-72
2023/03/14 12:03:35;;;;;;;5.93;1.00;;;6.60;99.90;;;;;;4996938;28;20482;-74
2023/03/14 12:06:26;;;;;;;8.27;1.63;;;6.60;99.90;;;;;;4997918;28;20501;-74
2023/03/14 12:09:10;;;;;;;6.55;1.02;;;6.60;99.90;;;;;;4999671;28;20026;-74
2023/03/14 12:12:03;;;;;;;4.07;0.90;;;6.70;99.90;;;;;;4994520;28;20049;-74
2023/03/14 12:14:31;;;;;;;4.45;0.98;;;6.80;99.90;;;;;;4997561;28;20080;-75
2023/03/14 12:17:25;;;;;;;6.05;1.15;;;6.80;99.90;;;;;;4999646;28;20029;-75
2023/03/14 12:20:18;;;;;;;6.20;1.02;;;6.90;99.90;;;;;;4998891;28;20037;-72
2023/03/14 12:22:49;;;;;;;9.05;1.58;;;6.70;99.90;;;;;;5000969;28;20037;-74
2023/03/14 12:25:17;;;;;;;11.70;1.70;;;6.70;99.90;;;;;;5000362;28;20037;-74
2023/03/14 12:27:49;;;;;;;5.85;1.17;;;6.70;99.90;;;;;;5002161;28;20026;-74
2023/03/14 12:30:16;;;;;;;8.15;2.17;;;6.70;99.90;;;;;;4998004;28;20121;-74
2023/03/14 12:32:42;;;;;;;6.13;1.05;;;6.70;99.90;;;;;;4999349;28;20061;-72
2023/03/14 12:35:35;;;;;;;8.55;1.55;;;6.70;99.90;;;;;;4998975;28;20457;-74
2023/03/14 12:38:04;;;;;;;9.10;1.50;;;6.80;99.90;;;;;;5003502;28;20072;-74
2023/03/14 12:40:39;;;;;;;9.57;1.27;;;6.70;99.90;;;;;;5001183;28;20083;-72
2023/03/14 12:43:24;;;;;;;12.00;1.83;;;6.70;99.90;;;;;;5001701;28;20580;-74
2023/03/14 12:46:17;;;;;;;5.70;1.20;;;6.60;99.90;;;;;;5001649;28;20104;-72
2023/03/14 12:48:45;;;;;;;5.93;1.30;;;6.60;99.90;;;;;;5001618;28;20030;-75
2023/03/14 12:51:19;;;;;;;11.70;1.67;;;6.60;99.90;;;;;;5002597;28;20033;-74
2023/03/14 12:54:11;;;;;;;17.33;2.25;;;6.70;99.90;;;;;;4988180;28;20088;-73
2023/03/14 12:56:39;;;;;;;13.15;2.13;;;6.80;99.90;;;;;;5001817;28;20042;-73
2023/03/14 12:59:26;;;;;;;13.40;1.70;;;6.80;99.90;;;;;;5001888;28;20526;-73